Parma, Arkansas
Current Conditions -  °F | °C
As of 11:35 AM on Friday 31 Oct 2014 (Local Time) from KBVX Reporting Station
Overcast Overcast  
Wind Chill: 12°   Ceiling: 3200
Heat Index: 12°   Visibility: 10mi
Dew Point:   Wind: 12mph
Humidity: 58%   Direction: 320°NW
Pressure: 30.24"   Gusts: 18mph
Location:  35.659°N, 92.1866°W
Report Text: KBVX 311635Z AUTO 32010G16KT 210V010 10SM OVC032 12/04 A3024 RMK AO1
Loading
Personal Weather Stations






























Interactive Weather Map
Tropical Storm Tracking
New forecast layout! Learn more

10-Day Weather Forecast

Advertisements
Track Severe Weather on mobile